createdAt,value
2022-12-19T00:01:26.633Z,101480.41
2022-12-19T00:03:58.420Z,101490.59
2022-12-19T00:06:25.640Z,101475.75
2022-12-19T00:08:53.654Z,101461.25
2022-12-19T00:11:23.106Z,101459.25
2022-12-19T00:13:49.905Z,101475.75
2022-12-19T00:16:19.821Z,101466.22
2022-12-19T00:18:48.812Z,101473.84
2022-12-19T00:21:17.705Z,101470.88
2022-12-19T00:23:45.614Z,101465.50
2022-12-19T00:26:13.333Z,101449.22
2022-12-19T00:28:40.888Z,101435.94
2022-12-19T00:31:07.403Z,101420.97
2022-12-19T00:33:34.343Z,101434.81
2022-12-19T00:36:07.282Z,101419.53
2022-12-19T00:38:34.405Z,101429.28
2022-12-19T00:41:32.124Z,101419.63
2022-12-19T00:44:00.898Z,101417.59
2022-12-19T00:46:28.720Z,101428.50
2022-12-19T00:48:55.496Z,101417.03
2022-12-19T00:51:25.064Z,101406.63
2022-12-19T00:53:53.807Z,101410.91
2022-12-19T00:56:26.807Z,101396.22
2022-12-19T00:58:54.615Z,101398.84
2022-12-19T01:01:33.333Z,101386.59
2022-12-19T01:06:47.259Z,101397.81
2022-12-19T01:09:14.755Z,101389.91
2022-12-19T01:12:00.002Z,101382.63
2022-12-19T01:14:26.653Z,101385.59
2022-12-19T01:16:53.046Z,101384.16
2022-12-19T01:19:20.250Z,101379.06
2022-12-19T01:21:46.835Z,101378.34
2022-12-19T01:24:13.919Z,101376.44
2022-12-19T01:26:45.832Z,101379.28
2022-12-19T01:29:12.396Z,101373.19
2022-12-19T01:31:39.009Z,101364.22
2022-12-19T01:34:06.797Z,101350.84
2022-12-19T01:36:34.687Z,101349.66
2022-12-19T01:39:05.137Z,101347.47
2022-12-19T01:41:31.645Z,101339.06
2022-12-19T01:44:01.936Z,101339.34
2022-12-19T01:46:40.213Z,101329.28
2022-12-19T01:49:19.133Z,101330.84
2022-12-19T01:51:51.095Z,101332.78
2022-12-19T01:54:22.497Z,101337.06
2022-12-19T01:56:51.973Z,101337.44
2022-12-19T01:59:28.385Z,101320.31
2022-12-19T02:02:00.493Z,101322.47
2022-12-19T02:04:32.524Z,101316.19
2022-12-19T02:07:15.321Z,101306.03
2022-12-19T02:09:45.119Z,101311.44
2022-12-19T02:12:11.775Z,101301.56
2022-12-19T02:14:38.540Z,101294.56
2022-12-19T02:17:33.004Z,101292.66
2022-12-19T02:20:17.736Z,101269.75
2022-12-19T02:23:16.548Z,101275.09
2022-12-19T02:25:56.843Z,101254.91
2022-12-19T02:28:46.211Z,101264.16
2022-12-19T02:31:21.803Z,101261.25
2022-12-19T02:34:23.785Z,101258.22
2022-12-19T02:36:57.435Z,101251.31
2022-12-19T02:39:39.392Z,101256.72
2022-12-19T02:42:09.826Z,101253.66
2022-12-19T02:44:45.165Z,101256.94
2022-12-19T02:47:13.494Z,101245.94
2022-12-19T02:49:40.266Z,101238.28
2022-12-19T02:52:32.922Z,101236.13
2022-12-19T02:55:13.548Z,101229.03
2022-12-19T02:58:10.788Z,101240.47
2022-12-19T03:00:49.054Z,101231.91
2022-12-19T03:03:37.689Z,101228.63
2022-12-19T03:06:14.075Z,101233.66
2022-12-19T03:08:53.907Z,101228.47
2022-12-19T03:11:22.784Z,101237.22
2022-12-19T03:14:00.465Z,101234.50
2022-12-19T03:16:27.404Z,101224.84
2022-12-19T03:18:54.478Z,101221.81
2022-12-19T03:21:27.366Z,101218.25
2022-12-19T03:23:55.596Z,101219.53
2022-12-19T03:26:26.584Z,101208.84
2022-12-19T03:29:01.738Z,101202.25
2022-12-19T03:31:32.437Z,101205.50
2022-12-19T03:34:08.680Z,101204.44
2022-12-19T03:36:41.437Z,101200.72
2022-12-19T03:39:11.106Z,101197.56
2022-12-19T03:41:58.214Z,101184.56
2022-12-19T03:44:28.520Z,101196.91
2022-12-19T03:47:00.137Z,101199.69
2022-12-19T03:49:26.912Z,101194.81
2022-12-19T03:52:03.256Z,101191.31
2022-12-19T03:55:10.244Z,101190.69
2022-12-19T03:57:47.706Z,101188.31
2022-12-19T04:00:17.646Z,101184.53
2022-12-19T04:02:50.329Z,101169.25
2022-12-19T04:05:26.093Z,101190.88
2022-12-19T04:07:57.005Z,101184.28
2022-12-19T04:10:26.494Z,101189.09
2022-12-19T04:13:19.375Z,101176.09
2022-12-19T04:16:27.586Z,101188.69
2022-12-19T04:19:03.182Z,101175.63
2022-12-19T04:21:40.364Z,101173.59
2022-12-19T04:24:13.120Z,101175.16
2022-12-19T04:26:48.622Z,101184.84
2022-12-19T04:29:15.951Z,101182.06
2022-12-19T04:31:43.657Z,101175.72
2022-12-19T04:34:10.347Z,101176.03
2022-12-19T04:36:36.878Z,101176.97
2022-12-19T04:39:03.976Z,101161.56
2022-12-19T04:41:30.388Z,101166.44
2022-12-19T04:43:56.781Z,101169.47
2022-12-19T04:46:23.375Z,101166.16
2022-12-19T04:48:49.902Z,101167.53
2022-12-19T04:51:16.420Z,101156.66
2022-12-19T04:53:42.882Z,101170.00
2022-12-19T04:56:09.616Z,101175.00
2022-12-19T04:58:36.248Z,101158.84
2022-12-19T05:01:07.694Z,101163.56
2022-12-19T05:03:34.990Z,101155.69
2022-12-19T05:06:10.397Z,101163.28
2022-12-19T05:08:38.714Z,101152.53
2022-12-19T05:11:05.873Z,101157.38
2022-12-19T05:13:32.782Z,101158.66
2022-12-19T05:16:01.446Z,101150.88
2022-12-19T05:18:28.767Z,101156.53
2022-12-19T05:20:55.991Z,101149.94
2022-12-19T05:23:23.074Z,101168.31
2022-12-19T05:25:50.035Z,101168.38
2022-12-19T05:28:17.135Z,101147.63
2022-12-19T05:30:47.754Z,101154.03
2022-12-19T05:33:17.159Z,101156.16
2022-12-19T05:35:43.862Z,101157.97
2022-12-19T05:38:10.457Z,101157.66
2022-12-19T05:40:36.915Z,101153.00
2022-12-19T05:43:03.823Z,101158.84
2022-12-19T05:45:30.315Z,101141.66
2022-12-19T05:48:01.195Z,101146.41
2022-12-19T05:50:28.227Z,101133.91
2022-12-19T05:52:54.613Z,101147.53
2022-12-19T05:55:21.053Z,101142.91
2022-12-19T05:57:47.646Z,101154.28
2022-12-19T06:00:15.179Z,101150.28
2022-12-19T06:02:42.312Z,101152.25
2022-12-19T06:05:09.168Z,101150.00
2022-12-19T06:07:35.668Z,101143.22
2022-12-19T06:10:02.228Z,101135.63
2022-12-19T06:12:28.616Z,101140.66
2022-12-19T06:14:56.129Z,101127.75
2022-12-19T06:17:22.994Z,101134.97
2022-12-19T06:19:49.409Z,101147.84
2022-12-19T06:22:16.917Z,101133.72
2022-12-19T06:24:43.286Z,101137.78
2022-12-19T06:27:09.934Z,101154.91
2022-12-19T06:29:36.407Z,101135.72
2022-12-19T06:32:02.884Z,101138.47
2022-12-19T06:35:02.349Z,101145.06
2022-12-19T06:37:15.724Z,101145.75
2022-12-19T06:39:42.157Z,101156.16
2022-12-19T06:42:24.949Z,101146.22
2022-12-19T06:44:54.188Z,101157.44
2022-12-19T06:47:22.191Z,101132.88
2022-12-19T06:49:49.049Z,101138.75
2022-12-19T06:52:16.353Z,101138.81
2022-12-19T06:54:42.779Z,101137.72
2022-12-19T06:57:09.172Z,101150.09
2022-12-19T06:59:35.608Z,101145.41
2022-12-19T07:02:27.768Z,101147.19
2022-12-19T07:05:04.299Z,101149.28
2022-12-19T07:07:30.875Z,101155.03
2022-12-19T07:09:57.502Z,101140.41
2022-12-19T07:12:23.880Z,101153.97
2022-12-19T07:14:53.725Z,101158.72
2022-12-19T07:17:22.194Z,101155.25
2022-12-19T07:19:48.663Z,101152.88
2022-12-19T07:22:15.198Z,101154.22
2022-12-19T07:24:41.723Z,101169.47
2022-12-19T07:27:08.234Z,101161.13
2022-12-19T07:29:34.654Z,101168.03
2022-12-19T07:32:01.090Z,101172.41
2022-12-19T07:34:27.567Z,101174.41
2022-12-19T07:36:54.082Z,101177.31
2022-12-19T07:39:21.809Z,101176.75
2022-12-19T07:41:48.346Z,101180.06
2022-12-19T07:44:16.480Z,101183.34
2022-12-19T07:46:43.394Z,101201.47
2022-12-19T07:49:09.904Z,101176.63
2022-12-19T07:51:36.390Z,101198.78
2022-12-19T07:54:05.988Z,101183.50
2022-12-19T07:56:32.535Z,101181.16
2022-12-19T07:58:59.083Z,101182.03
2022-12-19T08:01:28.289Z,101178.34
2022-12-19T08:03:55.959Z,101183.50
2022-12-19T08:06:23.408Z,101201.47
2022-12-19T08:08:50.226Z,101202.28
2022-12-19T08:11:19.701Z,101194.72
2022-12-19T08:13:46.964Z,101203.72
2022-12-19T08:16:14.056Z,101204.28
2022-12-19T08:18:40.705Z,101199.56
2022-12-19T08:21:08.360Z,101218.38
2022-12-19T08:23:35.099Z,101204.03
2022-12-19T08:26:07.175Z,101212.59
2022-12-19T08:28:35.743Z,101206.00
2022-12-19T08:31:17.380Z,101213.78
2022-12-19T08:33:44.919Z,101211.72
2022-12-19T08:36:14.273Z,101198.38
2022-12-19T08:38:41.152Z,101213.00
2022-12-19T08:41:08.361Z,101217.00
2022-12-19T08:43:35.097Z,101197.09
2022-12-19T08:46:01.767Z,101207.66
2022-12-19T08:48:28.369Z,101194.66
2022-12-19T08:50:56.802Z,101200.78
2022-12-19T08:53:26.646Z,101215.75
2022-12-19T08:56:01.645Z,101217.53
2022-12-19T08:58:30.261Z,101210.50
2022-12-19T09:01:06.301Z,101213.97
2022-12-19T09:03:38.105Z,101223.53
2022-12-19T09:06:19.921Z,101226.47
2022-12-19T09:08:46.928Z,101213.75
2022-12-19T09:11:16.482Z,101212.72
2022-12-19T09:13:45.002Z,101204.81
2022-12-19T09:16:15.583Z,101215.94
2022-12-19T09:18:48.406Z,101212.22
2022-12-19T09:21:16.154Z,101210.72
2022-12-19T09:23:42.896Z,101210.72
2022-12-19T09:26:12.981Z,101208.75
2022-12-19T09:28:40.847Z,101214.72
2022-12-19T09:31:11.908Z,101214.81
2022-12-19T09:33:43.316Z,101226.19
2022-12-19T09:36:15.582Z,101226.97
2022-12-19T09:38:42.302Z,101222.84
2022-12-19T09:41:30.559Z,101233.28
2022-12-19T09:44:36.170Z,101225.19
2022-12-19T09:47:14.539Z,101227.25
2022-12-19T09:49:44.689Z,101226.81
2022-12-19T09:52:32.987Z,101233.97
2022-12-19T09:55:28.141Z,101237.25
2022-12-19T09:58:08.081Z,101236.53
2022-12-19T10:00:40.361Z,101229.88
2022-12-19T10:03:32.266Z,101234.34
2022-12-19T10:07:14.004Z,101228.84
2022-12-19T10:10:29.192Z,101228.22
2022-12-19T10:12:50.814Z,101236.41
2022-12-19T10:15:47.183Z,101236.13
2022-12-19T10:18:51.156Z,101229.06
2022-12-19T10:21:43.191Z,101249.59
2022-12-19T10:25:08.192Z,101218.38
2022-12-19T10:27:58.502Z,101233.00
2022-12-19T10:30:25.720Z,101233.28
2022-12-19T10:32:59.769Z,101224.72
2022-12-19T10:35:33.057Z,101230.56
2022-12-19T10:38:11.725Z,101234.53
2022-12-19T10:40:51.957Z,101218.88
2022-12-19T10:43:40.818Z,101229.84
2022-12-19T10:46:41.241Z,101217.22
2022-12-19T10:49:17.067Z,101215.75
2022-12-19T10:51:55.536Z,101205.09
2022-12-19T10:54:46.217Z,101202.00
2022-12-19T10:57:27.603Z,101225.94
2022-12-19T11:00:13.477Z,101210.34
2022-12-19T11:02:44.720Z,101224.44
2022-12-19T11:05:38.946Z,101221.09
2022-12-19T11:08:08.298Z,101202.59
2022-12-19T11:12:02.672Z,101212.66
2022-12-19T11:18:53.577Z,101202.53
2022-12-19T11:22:19.177Z,101205.22
2022-12-19T11:29:27.069Z,101205.50
2022-12-19T11:30:05.168Z,101206.03
2022-12-19T11:30:43.541Z,101206.59
2022-12-19T11:30:45.892Z,101204.78
2022-12-19T11:32:32.010Z,101194.31
2022-12-19T11:34:19.331Z,101190.53
2022-12-19T11:37:16.981Z,101193.78
2022-12-19T11:39:52.833Z,101201.56
2022-12-19T11:42:37.445Z,101183.59
2022-12-19T11:45:26.908Z,101179.47
2022-12-19T11:48:01.992Z,101189.38
2022-12-19T11:50:32.764Z,101161.53
2022-12-19T11:53:18.434Z,101175.22
2022-12-19T11:55:51.466Z,101165.31
2022-12-19T11:58:17.932Z,101173.84
2022-12-19T12:01:02.035Z,101174.69
2022-12-19T12:04:01.855Z,101173.84
2022-12-19T12:06:34.025Z,101162.63
2022-12-19T12:12:00.409Z,101156.38
2022-12-19T12:20:03.901Z,101149.75
2022-12-19T12:27:07.096Z,101156.94
2022-12-19T12:31:13.483Z,101149.66
2022-12-19T12:31:40.357Z,101143.16
2022-12-19T12:31:41.610Z,101159.25
2022-12-19T12:31:42.627Z,101150.44
2022-12-19T12:32:05.785Z,101148.13
2022-12-19T12:35:48.803Z,101147.56
2022-12-19T12:39:35.367Z,101154.75
2022-12-19T12:42:20.545Z,101148.69
2022-12-19T12:44:50.690Z,101150.81
2022-12-19T12:47:20.538Z,101141.03
2022-12-19T12:50:03.458Z,101161.31
2022-12-19T12:52:35.130Z,101140.72
2022-12-19T12:55:04.687Z,101153.94
2022-12-19T12:57:37.064Z,101143.38
2022-12-19T13:00:23.633Z,101135.41
2022-12-19T13:03:12.923Z,101107.41
2022-12-19T13:06:04.698Z,101121.75
2022-12-19T13:08:34.437Z,101109.88
2022-12-19T13:11:03.870Z,101107.59
2022-12-19T13:13:51.736Z,101115.78
2022-12-19T13:16:43.219Z,101101.38
2022-12-19T13:19:34.907Z,101101.34
2022-12-19T13:22:04.381Z,101110.16
2022-12-19T13:25:00.331Z,101085.09
2022-12-19T13:27:26.863Z,101097.38
2022-12-19T13:30:07.926Z,101087.56
2022-12-19T13:32:40.195Z,101074.28
2022-12-19T13:36:35.661Z,101085.91
2022-12-19T13:39:56.520Z,101069.44
2022-12-19T13:41:23.246Z,101075.25
2022-12-19T13:43:50.002Z,101073.94
2022-12-19T13:46:31.085Z,101079.25
2022-12-19T13:49:06.989Z,101079.91
2022-12-19T13:51:48.692Z,101080.25
2022-12-19T13:54:23.242Z,101083.75
2022-12-19T13:56:51.771Z,101066.47
2022-12-19T13:59:21.290Z,101078.25
2022-12-19T14:01:48.683Z,101073.63
2022-12-19T14:04:35.445Z,101069.28
2022-12-19T14:07:21.739Z,101082.91
2022-12-19T14:11:35.338Z,101071.59
2022-12-19T14:13:43.628Z,101083.25
2022-12-19T14:15:52.387Z,101074.13
2022-12-19T14:18:44.915Z,101080.06
2022-12-19T14:22:05.376Z,101080.25
2022-12-19T14:24:22.433Z,101092.88
2022-12-19T14:28:16.911Z,101090.41
2022-12-19T14:30:30.702Z,101090.72
2022-12-19T14:33:39.356Z,101095.72
2022-12-19T14:36:06.159Z,101085.91
2022-12-19T14:39:26.450Z,101088.56
2022-12-19T14:41:46.270Z,101100.53
2022-12-19T14:54:01.530Z,101101.50
2022-12-19T14:54:02.261Z,101086.56
2022-12-19T14:54:10.025Z,101095.03
2022-12-19T14:54:40.347Z,101093.69
2022-12-19T14:56:13.488Z,101097.53
2022-12-19T14:58:52.098Z,101107.00
2022-12-19T15:01:33.075Z,101112.00
2022-12-19T15:04:53.009Z,101089.41
2022-12-19T15:07:11.256Z,101083.91
2022-12-19T15:11:07.400Z,101066.97
2022-12-19T15:14:49.151Z,101063.47
2022-12-19T15:15:58.957Z,101072.47
2022-12-19T15:18:39.286Z,101063.31
2022-12-19T15:21:14.597Z,101074.44
2022-12-19T15:23:43.621Z,101063.31
2022-12-19T15:26:15.740Z,101055.34
2022-12-19T15:28:51.397Z,101051.53
2022-12-19T15:31:33.003Z,101039.22
2022-12-19T15:34:33.030Z,101049.69
2022-12-19T15:36:45.918Z,101057.81
2022-12-19T15:39:12.365Z,101069.81
2022-12-19T15:41:38.806Z,101070.63
2022-12-19T15:44:14.169Z,101068.31
2022-12-19T15:46:48.090Z,101062.66
2022-12-19T15:49:17.022Z,101065.16
2022-12-19T15:51:44.119Z,101067.66
2022-12-19T15:54:46.492Z,101070.78
2022-12-19T15:56:57.284Z,101064.47
2022-12-19T15:59:49.919Z,101064.47
2022-12-19T16:02:19.164Z,101052.00
2022-12-19T16:04:47.716Z,101054.69
2022-12-19T16:07:19.457Z,101066.31
2022-12-19T16:09:46.358Z,101078.63
2022-12-19T16:12:24.396Z,101072.78
2022-12-19T16:14:56.858Z,101077.59
2022-12-19T16:17:25.184Z,101077.41
2022-12-19T16:19:52.806Z,101069.78
2022-12-19T16:22:25.166Z,101056.66
2022-12-19T16:24:54.045Z,101050.34
2022-12-19T16:27:27.409Z,101052.53
2022-12-19T16:29:55.358Z,101060.47
2022-12-19T16:32:24.174Z,101069.94
2022-12-19T16:34:52.851Z,101063.66
2022-12-19T16:37:19.338Z,101044.22
2022-12-19T16:39:45.887Z,101043.03
2022-12-19T16:42:15.310Z,101047.03
2022-12-19T16:44:45.415Z,101056.16
2022-12-19T16:47:17.721Z,101050.69
2022-12-19T16:49:45.336Z,101044.22
2022-12-19T16:52:12.268Z,101032.59
2022-12-19T16:54:38.736Z,101049.84
2022-12-19T16:57:14.837Z,101056.31
2022-12-19T16:59:41.878Z,101060.13
2022-12-19T17:02:44.557Z,101057.50
2022-12-19T17:05:35.425Z,101061.66
2022-12-19T17:08:02.139Z,101072.59
2022-12-19T17:10:33.628Z,101075.44
2022-12-19T17:13:03.198Z,101079.09
2022-12-19T17:15:33.767Z,101076.75
2022-12-19T17:18:02.672Z,101080.75
2022-12-19T17:20:35.545Z,101081.41
2022-12-19T17:23:01.932Z,101059.69
2022-12-19T17:25:28.802Z,101063.31
2022-12-19T17:27:56.025Z,101055.13
2022-12-19T17:30:22.654Z,101063.81
2022-12-19T17:32:50.974Z,101059.31
2022-12-19T17:35:27.321Z,101062.13
2022-12-19T17:37:57.236Z,101059.97
2022-12-19T17:40:30.483Z,101054.81
2022-12-19T17:42:57.599Z,101048.19
2022-12-19T17:45:25.800Z,101043.34
2022-12-19T17:48:00.396Z,101048.03
2022-12-19T17:50:34.550Z,101040.53
2022-12-19T17:53:01.304Z,101063.47
2022-12-19T17:55:29.642Z,101059.31
2022-12-19T17:57:57.059Z,101060.34
2022-12-19T18:00:30.310Z,101050.53
2022-12-19T18:03:05.175Z,101052.69
2022-12-19T18:05:36.414Z,101038.72
2022-12-19T18:08:03.580Z,101034.06
2022-12-19T18:10:31.550Z,101030.53
2022-12-19T18:12:58.307Z,101039.53
2022-12-19T18:15:25.400Z,101037.19
2022-12-19T18:17:53.428Z,101035.38
2022-12-19T18:20:31.989Z,101058.13
2022-12-19T18:23:00.390Z,101052.13
2022-12-19T18:25:31.003Z,101052.31
2022-12-19T18:27:58.410Z,101055.00
2022-12-19T18:30:26.025Z,101062.28
2022-12-19T18:33:01.424Z,101062.59
2022-12-19T18:35:36.857Z,101063.47
2022-12-19T18:38:12.405Z,101063.16
2022-12-19T18:40:39.203Z,101079.25
2022-12-19T18:43:06.307Z,101084.06
2022-12-19T18:45:38.894Z,101083.72
2022-12-19T18:48:14.465Z,101094.72
2022-12-19T18:50:41.866Z,101086.72
2022-12-19T18:53:14.223Z,101088.88
2022-12-19T18:55:40.779Z,101090.56
2022-12-19T18:58:07.345Z,101077.09
2022-12-19T19:00:35.578Z,101074.94
2022-12-19T19:03:05.260Z,101099.84
2022-12-19T19:05:34.453Z,101096.84
2022-12-19T19:08:12.729Z,101094.50
2022-12-19T19:10:39.239Z,101105.34
2022-12-19T19:13:10.146Z,101101.19
2022-12-19T19:15:42.730Z,101096.72
2022-12-19T19:18:09.346Z,101110.47
2022-12-19T19:20:38.815Z,101104.03
2022-12-19T19:23:11.483Z,101104.81
2022-12-19T19:25:38.025Z,101121.94
2022-12-19T19:28:05.450Z,101111.31
2022-12-19T19:30:34.563Z,101111.28
2022-12-19T19:33:10.431Z,101105.16
2022-12-19T19:35:38.708Z,101109.28
2022-12-19T19:38:08.719Z,101098.16
2022-12-19T19:40:36.837Z,101094.69
2022-12-19T19:43:04.179Z,101100.66
2022-12-19T19:45:30.902Z,101090.53
2022-12-19T19:47:57.468Z,101093.66
2022-12-19T19:50:24.704Z,101088.38
2022-12-19T19:52:51.251Z,101076.38
2022-12-19T19:55:17.791Z,101088.00
2022-12-19T19:57:45.259Z,101089.97
2022-12-19T20:00:12.330Z,101095.44
2022-12-19T20:02:39.116Z,101089.63
2022-12-19T20:05:06.228Z,101095.63
2022-12-19T20:07:32.839Z,101094.78
2022-12-19T20:09:59.264Z,101099.78
2022-12-19T20:12:25.734Z,101085.94
2022-12-19T20:14:52.499Z,101097.59
2022-12-19T20:17:19.044Z,101081.84
2022-12-19T20:19:45.582Z,101092.47
2022-12-19T20:22:12.001Z,101069.69
2022-12-19T20:24:38.525Z,101080.97
2022-12-19T20:27:04.971Z,101097.91
2022-12-19T20:29:31.507Z,101094.47
2022-12-19T20:31:57.979Z,101087.81
2022-12-19T20:34:25.772Z,101093.59
2022-12-19T20:36:52.341Z,101090.13
2022-12-19T20:39:22.152Z,101108.75
2022-12-19T20:41:52.914Z,101099.88
2022-12-19T20:44:24.149Z,101115.50
2022-12-19T20:46:51.624Z,101109.88
2022-12-19T20:49:18.737Z,101116.88
2022-12-19T20:51:47.652Z,101106.22
2022-12-19T20:54:15.749Z,101117.00
2022-12-19T20:56:42.646Z,101122.69
2022-12-19T20:59:09.886Z,101128.69
2022-12-19T21:01:36.445Z,101132.66
2022-12-19T21:04:03.547Z,101135.31
2022-12-19T21:06:30.463Z,101128.31
2022-12-19T21:08:57.337Z,101128.31
2022-12-19T21:11:26.154Z,101136.50
2022-12-19T21:13:52.737Z,101123.44
2022-12-19T21:16:22.081Z,101130.81
2022-12-19T21:18:49.955Z,101128.66
2022-12-19T21:21:25.662Z,101139.44
2022-12-19T21:23:53.916Z,101133.97
2022-12-19T21:26:22.715Z,101128.47
2022-12-19T21:28:50.750Z,101125.84
2022-12-19T21:31:29.287Z,101118.00
2022-12-19T21:33:58.383Z,101120.31
2022-12-19T21:36:26.195Z,101117.47
2022-12-19T21:38:55.825Z,101115.31
2022-12-19T21:41:22.586Z,101118.84
2022-12-19T21:43:53.477Z,101110.44
2022-12-19T21:46:22.352Z,101109.69
2022-12-19T21:48:50.813Z,101125.66
2022-12-19T21:51:19.825Z,101124.16
2022-12-19T21:53:46.766Z,101111.50
2022-12-19T21:56:25.644Z,101099.66
2022-12-19T21:58:54.175Z,101114.84
2022-12-19T22:01:21.026Z,101108.88
2022-12-19T22:03:47.770Z,101096.91
2022-12-19T22:06:27.762Z,101108.00
2022-12-19T22:08:55.233Z,101088.75
2022-12-19T22:11:22.028Z,101087.28
2022-12-19T22:13:49.797Z,101087.41
2022-12-19T22:16:17.183Z,101089.41
2022-12-19T22:18:44.689Z,101086.28
2022-12-19T22:21:13.356Z,101072.25
2022-12-19T22:23:40.385Z,101078.28
2022-12-19T22:26:17.188Z,101081.63
2022-12-19T22:28:46.312Z,101070.94
2022-12-19T22:31:21.865Z,101090.75
2022-12-19T22:33:50.232Z,101066.59
2022-12-19T22:36:23.952Z,101067.75
2022-12-19T22:38:54.195Z,101058.31
2022-12-19T22:41:21.265Z,101056.50
2022-12-19T22:43:47.845Z,101068.59
2022-12-19T22:46:19.521Z,101063.00
2022-12-19T22:48:47.113Z,101080.78
2022-12-19T22:51:14.930Z,101053.00
2022-12-19T22:53:42.275Z,101056.63
2022-12-19T22:56:13.220Z,101062.25
2022-12-19T22:58:41.833Z,101065.63
2022-12-19T23:01:26.616Z,101054.09
2022-12-19T23:03:55.586Z,101061.25
2022-12-19T23:06:23.635Z,101069.56
2022-12-19T23:08:50.059Z,101053.03
2022-12-19T23:11:20.032Z,101044.03
2022-12-19T23:13:47.362Z,101047.00
2022-12-19T23:16:13.946Z,101054.03
2022-12-19T23:18:41.115Z,101053.38
2022-12-19T23:21:19.239Z,101055.34
2022-12-19T23:23:47.488Z,101047.81
2022-12-19T23:26:23.099Z,101048.22
2022-12-19T23:28:54.931Z,101049.38
2022-12-19T23:31:22.161Z,101037.56
2022-12-19T23:33:49.184Z,101031.28
2022-12-19T23:36:15.848Z,101024.13
2022-12-19T23:38:43.413Z,101035.34
2022-12-19T23:41:12.927Z,101028.13
2022-12-19T23:43:40.243Z,101024.75
2022-12-19T23:46:08.329Z,100997.50
2022-12-19T23:48:34.845Z,101009.56
2022-12-19T23:51:04.099Z,101019.78
2022-12-19T23:53:31.396Z,101023.38
2022-12-19T23:55:58.639Z,101030.88
2022-12-19T23:58:25.232Z,101024.75
